createdAt,value
2022-08-12T00:00:36.502Z,1.00
2022-08-12T00:03:23.028Z,0.80
2022-08-12T00:06:09.519Z,0.90
2022-08-12T00:08:57.923Z,0.80
2022-08-12T00:11:45.716Z,0.90
2022-08-12T00:14:32.622Z,1.00
2022-08-12T00:17:18.929Z,1.00
2022-08-12T00:20:05.253Z,0.98
2022-08-12T00:22:58.692Z,0.90
2022-08-12T00:26:20.749Z,0.80
2022-08-12T00:29:03.058Z,0.75
2022-08-12T00:31:49.447Z,0.90
2022-08-12T00:34:35.991Z,0.82
2022-08-12T00:37:22.677Z,1.27
2022-08-12T00:40:10.975Z,0.90
2022-08-12T00:42:41.636Z,0.80
2022-08-12T00:45:10.265Z,0.90
2022-08-12T00:47:38.005Z,0.90
2022-08-12T00:50:06.798Z,0.90
2022-08-12T00:52:35.319Z,0.90
2022-08-12T00:55:04.697Z,1.08
2022-08-12T00:57:37.873Z,0.90
2022-08-12T01:00:10.114Z,1.12
2022-08-12T01:02:40.498Z,0.90
2022-08-12T01:05:29.347Z,0.80
2022-08-12T01:08:15.661Z,0.90
2022-08-12T01:11:03.014Z,0.80
2022-08-12T01:13:33.805Z,0.80
2022-08-12T01:16:04.526Z,0.93
2022-08-12T01:18:35.001Z,1.00
2022-08-12T01:21:28.462Z,0.80
2022-08-12T01:24:30.704Z,0.70
2022-08-12T01:27:01.312Z,0.88
2022-08-12T01:29:33.320Z,1.00
2022-08-12T01:32:08.702Z,1.00
2022-08-12T01:34:38.672Z,1.10
2022-08-12T01:37:08.811Z,1.00
2022-08-12T01:40:33.231Z,0.82
2022-08-12T01:43:05.033Z,0.98
2022-08-12T01:45:42.849Z,1.00
2022-08-12T01:48:43.685Z,1.10
2022-08-12T01:52:15.476Z,1.00
2022-08-12T01:54:17.212Z,1.00
2022-08-12T01:56:52.429Z,1.70
2022-08-12T01:59:47.166Z,0.95
2022-08-12T02:02:39.579Z,1.10
2022-08-12T02:05:38.333Z,1.10
2022-08-12T02:08:34.860Z,1.20
2022-08-12T02:11:18.395Z,1.40
2022-08-12T02:14:24.155Z,0.90
2022-08-12T02:16:54.457Z,1.20
2022-08-12T02:19:43.033Z,1.10
2022-08-12T02:22:33.201Z,0.90
2022-08-12T02:25:08.040Z,0.90
2022-08-12T02:27:47.267Z,0.88
2022-08-12T02:30:19.303Z,0.90
2022-08-12T02:32:51.283Z,1.20
2022-08-12T02:35:21.095Z,1.05
2022-08-12T02:37:51.206Z,1.08
2022-08-12T02:40:20.046Z,1.23
2022-08-12T02:42:59.073Z,1.05
2022-08-12T02:45:39.602Z,1.10
2022-08-12T02:48:08.679Z,0.88
2022-08-12T02:50:40.761Z,1.10
2022-08-12T02:53:08.456Z,1.08
2022-08-12T02:55:38.890Z,1.25
2022-08-12T02:58:12.585Z,1.00
2022-08-12T03:00:44.493Z,1.10
2022-08-12T03:03:13.723Z,1.20
2022-08-12T03:05:51.742Z,1.15
2022-08-12T03:08:32.467Z,1.30
2022-08-12T03:11:42.296Z,1.00
2022-08-12T03:14:14.168Z,1.15
2022-08-12T03:16:41.961Z,1.55
2022-08-12T03:19:09.405Z,1.55
2022-08-12T03:21:54.680Z,1.20
2022-08-12T03:24:27.482Z,1.45
2022-08-12T03:27:00.518Z,1.50
2022-08-12T03:29:30.917Z,1.65
2022-08-12T03:32:03.784Z,1.67
2022-08-12T03:34:35.418Z,1.30
2022-08-12T03:37:05.192Z,1.35
2022-08-12T03:39:39.983Z,1.65
2022-08-12T03:42:17.199Z,1.42
2022-08-12T03:45:25.153Z,1.70
2022-08-12T03:48:18.951Z,1.95
2022-08-12T03:51:06.901Z,1.65
2022-08-12T03:53:53.297Z,1.50
2022-08-12T03:56:39.694Z,1.30
2022-08-12T03:59:26.383Z,1.48
2022-08-12T04:01:57.850Z,1.50
2022-08-12T04:04:27.998Z,1.48
2022-08-12T04:06:55.901Z,1.62
2022-08-12T04:09:23.549Z,1.67
2022-08-12T04:12:09.633Z,1.60
2022-08-12T04:14:37.745Z,1.50
2022-08-12T04:17:05.699Z,1.50
2022-08-12T04:19:33.217Z,1.77
2022-08-12T04:22:03.504Z,1.70
2022-08-12T04:24:35.204Z,2.00
2022-08-12T04:27:05.754Z,1.73
2022-08-12T04:30:29.148Z,1.70
2022-08-12T04:32:21.934Z,1.65
2022-08-12T04:34:50.694Z,1.90
2022-08-12T04:37:18.185Z,1.95
2022-08-12T04:39:46.107Z,1.75
2022-08-12T04:42:13.919Z,1.75
2022-08-12T04:44:42.465Z,2.00
2022-08-12T04:47:13.204Z,1.80
2022-08-12T04:49:41.238Z,1.87
2022-08-12T04:52:09.894Z,1.85
2022-08-12T04:54:37.906Z,1.55
2022-08-12T04:57:09.847Z,1.77
2022-08-12T04:59:48.157Z,1.90
2022-08-12T05:02:21.428Z,1.80
2022-08-12T05:05:01.024Z,1.80
2022-08-12T05:07:29.032Z,1.60
2022-08-12T05:09:59.780Z,1.67
2022-08-12T05:12:34.481Z,1.65
2022-08-12T05:15:02.020Z,1.80
2022-08-12T05:17:29.748Z,1.37
2022-08-12T05:19:58.000Z,1.60
2022-08-12T05:22:26.583Z,1.52
2022-08-12T05:24:54.364Z,1.70
2022-08-12T05:27:22.911Z,1.80
2022-08-12T05:30:07.232Z,1.77
2022-08-12T05:32:37.182Z,1.45
2022-08-12T05:35:08.765Z,1.62
2022-08-12T05:37:36.324Z,2.03
2022-08-12T05:40:10.645Z,1.83
2022-08-12T05:42:38.340Z,1.33
2022-08-12T05:45:06.876Z,1.70
2022-08-12T05:47:53.300Z,1.30
2022-08-12T05:50:22.109Z,1.20
2022-08-12T05:52:49.518Z,1.80
2022-08-12T05:55:25.864Z,2.07
2022-08-12T05:57:56.848Z,1.58
2022-08-12T06:00:25.949Z,1.58
2022-08-12T06:03:01.214Z,1.48
2022-08-12T06:05:30.519Z,1.48
2022-08-12T06:08:01.386Z,1.52
2022-08-12T06:10:31.559Z,1.92
2022-08-12T06:13:05.241Z,1.83
2022-08-12T06:15:38.089Z,1.83
2022-08-12T06:18:13.775Z,1.85
2022-08-12T06:20:43.934Z,1.50
2022-08-12T06:23:11.919Z,1.90
2022-08-12T06:25:39.907Z,2.10
2022-08-12T06:28:17.525Z,1.85
2022-08-12T06:30:53.065Z,1.90
2022-08-12T06:33:55.932Z,2.00
2022-08-12T06:36:21.176Z,2.10
2022-08-12T06:38:49.671Z,2.10
2022-08-12T06:41:35.714Z,2.05
2022-08-12T06:44:06.628Z,1.90
2022-08-12T06:46:36.979Z,1.75
2022-08-12T06:49:06.384Z,2.10
2022-08-12T06:51:33.999Z,2.22
2022-08-12T06:54:01.926Z,2.00
2022-08-12T06:57:01.912Z,1.95
2022-08-12T06:59:21.474Z,1.70
2022-08-12T07:01:50.763Z,1.80
2022-08-12T07:07:09.547Z,1.65
2022-08-12T07:10:04.049Z,1.80
2022-08-12T07:12:31.193Z,1.70
2022-08-12T07:14:59.838Z,1.52
2022-08-12T07:17:37.540Z,1.75
2022-08-12T07:20:09.878Z,1.40
2022-08-12T07:22:39.140Z,1.60
2022-08-12T07:25:26.179Z,1.40
2022-08-12T07:27:54.449Z,1.60
2022-08-12T07:30:23.240Z,1.37
2022-08-12T07:32:52.302Z,1.50
2022-08-12T07:35:20.495Z,1.52
2022-08-12T07:37:50.495Z,1.40
2022-08-12T07:40:18.843Z,1.50
2022-08-12T07:42:46.591Z,1.33
2022-08-12T07:45:14.670Z,1.35
2022-08-12T07:47:43.576Z,1.37
2022-08-12T07:50:13.507Z,1.20
2022-08-12T07:52:44.447Z,1.40
2022-08-12T07:55:12.579Z,1.40
2022-08-12T07:57:59.392Z,1.60
2022-08-12T08:00:31.909Z,1.50
2022-08-12T08:02:59.719Z,1.62
2022-08-12T08:05:31.595Z,1.23
2022-08-12T08:08:02.532Z,1.30
2022-08-12T08:10:31.229Z,1.55
2022-08-12T08:13:04.349Z,1.50
2022-08-12T08:16:01.901Z,1.40
2022-08-12T08:18:27.629Z,1.60
2022-08-12T08:20:56.690Z,1.42
2022-08-12T08:23:46.400Z,1.60
2022-08-12T08:26:15.635Z,1.70
2022-08-12T08:28:43.495Z,1.42
2022-08-12T08:31:14.325Z,1.92
2022-08-12T08:34:01.593Z,1.80
2022-08-12T08:36:29.497Z,1.50
2022-08-12T08:38:58.266Z,1.50
2022-08-12T08:42:17.303Z,1.42
2022-08-12T08:44:38.751Z,1.60
2022-08-12T08:47:07.494Z,2.00
2022-08-12T08:49:37.281Z,1.73
2022-08-12T08:52:06.499Z,2.17
2022-08-12T08:54:34.350Z,1.75
2022-08-12T08:57:03.880Z,1.75
2022-08-12T08:59:31.447Z,1.80
2022-08-12T09:01:59.833Z,1.98
2022-08-12T09:05:12.132Z,2.25
2022-08-12T09:10:09.229Z,2.50
2022-08-12T09:15:57.695Z,2.45
2022-08-12T09:18:33.104Z,2.25
2022-08-12T09:21:15.788Z,2.20
2022-08-12T09:24:00.490Z,2.25
2022-08-12T09:26:31.496Z,2.30
2022-08-12T09:29:01.450Z,2.70
2022-08-12T09:32:06.991Z,2.60
2022-08-12T09:34:34.107Z,2.25
2022-08-12T09:37:19.660Z,2.22
2022-08-12T09:40:06.364Z,2.30
2022-08-12T09:43:18.023Z,2.15
2022-08-12T09:46:19.297Z,1.90
2022-08-12T09:48:39.905Z,1.87
2022-08-12T09:51:21.586Z,1.80
2022-08-12T09:54:06.837Z,1.42
2022-08-12T09:57:01.039Z,1.73
2022-08-12T10:00:12.728Z,1.98
2022-08-12T10:02:44.049Z,1.75
2022-08-12T10:05:06.017Z,1.60
2022-08-12T10:07:40.362Z,1.73
2022-08-12T10:10:22.686Z,1.80
2022-08-12T10:13:35.143Z,1.90
2022-08-12T10:16:05.592Z,1.83
2022-08-12T10:18:51.339Z,1.85
2022-08-12T10:21:35.809Z,1.80
2022-08-12T10:24:07.307Z,1.67
2022-08-12T10:26:55.200Z,1.98
2022-08-12T10:30:02.971Z,2.00
2022-08-12T10:32:45.569Z,1.67
2022-08-12T10:35:17.450Z,2.37
2022-08-12T10:38:39.087Z,1.60
2022-08-12T10:40:54.649Z,1.58
2022-08-12T10:43:55.867Z,2.10
2022-08-12T10:46:31.356Z,2.25
2022-08-12T10:49:07.050Z,1.90
2022-08-12T10:52:33.237Z,1.70
2022-08-12T10:54:41.670Z,1.65
2022-08-12T10:57:32.645Z,1.90
2022-08-12T11:00:31.854Z,1.80
2022-08-12T11:04:22.960Z,2.08
2022-08-12T11:07:06.571Z,1.67
2022-08-12T11:08:37.147Z,1.92
2022-08-12T11:11:13.749Z,1.62
2022-08-12T11:16:22.078Z,1.70
2022-08-12T11:18:55.525Z,1.80
2022-08-12T11:21:56.164Z,1.75
2022-08-12T11:24:30.401Z,1.95
2022-08-12T11:27:00.667Z,1.70
2022-08-12T11:30:02.455Z,1.73
2022-08-12T11:32:17.577Z,1.58
2022-08-12T11:34:51.517Z,1.70
2022-08-12T11:37:25.420Z,1.80
2022-08-12T11:42:39.922Z,1.65
2022-08-12T11:45:16.626Z,1.50
2022-08-12T11:47:44.894Z,1.67
2022-08-12T11:50:19.541Z,1.50
2022-08-12T11:52:55.661Z,1.48
2022-08-12T11:55:25.347Z,1.40
2022-08-12T11:58:07.459Z,1.48
2022-08-12T12:03:44.083Z,1.40
2022-08-12T12:06:17.961Z,1.08
2022-08-12T12:09:05.798Z,1.20
2022-08-12T12:11:48.593Z,1.40
2022-08-12T12:14:17.797Z,1.60
2022-08-12T12:16:50.181Z,1.20
2022-08-12T12:19:19.005Z,1.40
2022-08-12T12:21:46.913Z,1.77
2022-08-12T12:24:21.449Z,1.35
2022-08-12T12:27:00.723Z,1.58
2022-08-12T12:30:18.299Z,1.50
2022-08-12T12:32:18.950Z,1.50
2022-08-12T12:35:17.802Z,1.50
2022-08-12T12:38:03.292Z,1.85
2022-08-12T12:40:22.691Z,1.50
2022-08-12T12:43:01.825Z,1.62
2022-08-12T12:45:35.557Z,1.50
2022-08-12T12:48:08.390Z,1.48
2022-08-12T12:50:45.636Z,1.77
2022-08-12T12:54:05.213Z,1.30
2022-08-12T12:56:21.169Z,1.33
2022-08-12T12:59:06.244Z,1.37
2022-08-12T13:01:38.164Z,1.30
2022-08-12T13:04:12.089Z,1.40
2022-08-12T13:06:41.232Z,1.80
2022-08-12T13:09:13.226Z,1.37
2022-08-12T13:11:42.126Z,1.45
2022-08-12T13:14:28.788Z,1.20
2022-08-12T13:17:02.727Z,1.37
2022-08-12T13:19:37.865Z,1.45
2022-08-12T13:22:18.989Z,1.40
2022-08-12T13:24:55.030Z,1.30
2022-08-12T13:27:35.094Z,1.17
2022-08-12T13:30:06.898Z,1.60
2022-08-12T13:32:56.711Z,1.30
2022-08-12T13:35:33.339Z,1.20
2022-08-12T13:38:14.234Z,1.70
2022-08-12T13:40:41.949Z,1.40
2022-08-12T13:43:40.558Z,1.70
2022-08-12T13:46:11.917Z,1.25
2022-08-12T13:48:44.957Z,1.60
2022-08-12T13:51:14.358Z,1.50
2022-08-12T13:53:57.667Z,1.27
2022-08-12T13:56:34.518Z,1.52
2022-08-12T13:59:09.631Z,1.75
2022-08-12T14:01:41.317Z,1.87
2022-08-12T14:04:11.502Z,1.75
2022-08-12T14:06:44.787Z,1.90
2022-08-12T14:09:18.047Z,1.70
2022-08-12T14:11:58.833Z,1.70
2022-08-12T14:14:31.605Z,1.60
2022-08-12T14:17:10.283Z,1.55
2022-08-12T14:20:00.545Z,1.95
2022-08-12T14:22:28.648Z,1.45
2022-08-12T14:24:58.819Z,1.80
2022-08-12T14:27:55.453Z,1.37
2022-08-12T14:30:24.072Z,1.70
2022-08-12T14:32:56.886Z,1.50
2022-08-12T14:35:24.558Z,1.40
2022-08-12T14:37:56.509Z,1.20
2022-08-12T14:40:29.173Z,1.50
2022-08-12T14:42:57.704Z,1.35
2022-08-12T14:45:45.197Z,1.30
2022-08-12T14:48:15.028Z,1.15
2022-08-12T14:51:09.842Z,1.30
2022-08-12T14:59:56.944Z,1.50
2022-08-12T15:02:20.915Z,1.30
2022-08-12T15:07:34.052Z,1.50
2022-08-12T15:10:13.420Z,1.45
2022-08-12T15:12:41.076Z,1.30
2022-08-12T15:15:10.503Z,1.65
2022-08-12T15:17:39.155Z,1.30
2022-08-12T15:20:32.762Z,1.40
2022-08-12T15:22:57.917Z,1.58
2022-08-12T15:25:29.840Z,1.55
2022-08-12T15:28:20.692Z,1.40
2022-08-12T15:30:52.212Z,1.50
2022-08-12T15:33:24.221Z,1.40
2022-08-12T15:35:53.997Z,1.40
2022-08-12T15:38:31.381Z,1.60
2022-08-12T15:41:01.057Z,1.55
2022-08-12T15:44:15.877Z,1.50
2022-08-12T15:46:21.267Z,1.10
2022-08-12T15:48:53.634Z,1.60
2022-08-12T15:51:57.264Z,1.50
2022-08-12T15:54:33.297Z,1.40
2022-08-12T15:57:07.850Z,1.30
2022-08-12T15:59:51.934Z,1.50
2022-08-12T16:02:29.537Z,2.22
2022-08-12T16:04:58.063Z,1.60
2022-08-12T16:07:31.141Z,1.70
2022-08-12T16:10:08.121Z,1.77
2022-08-12T16:12:43.197Z,1.83
2022-08-12T16:15:13.518Z,1.60
2022-08-12T16:18:18.477Z,1.40
2022-08-12T16:20:33.676Z,1.73
2022-08-12T16:23:14.908Z,1.50
2022-08-12T16:26:05.246Z,1.50
2022-08-12T16:28:34.617Z,2.15
2022-08-12T16:31:02.655Z,1.50
2022-08-12T16:33:58.695Z,1.98
2022-08-12T16:36:25.538Z,1.90
2022-08-12T16:38:53.159Z,1.70
2022-08-12T16:41:22.474Z,1.70
2022-08-12T16:43:50.578Z,1.67
2022-08-12T16:46:31.422Z,1.75
2022-08-12T16:49:04.137Z,1.73
2022-08-12T16:51:40.689Z,1.50
2022-08-12T16:54:12.708Z,1.83
2022-08-12T16:56:54.626Z,1.40
2022-08-12T16:59:23.834Z,1.77
2022-08-12T17:01:51.801Z,1.52
2022-08-12T17:04:19.285Z,1.62
2022-08-12T17:06:48.042Z,1.75
2022-08-12T17:09:17.077Z,1.75
2022-08-12T17:11:49.695Z,1.58
2022-08-12T17:14:23.000Z,1.60
2022-08-12T17:16:52.345Z,1.73
2022-08-12T17:20:28.878Z,1.83
2022-08-12T17:22:10.220Z,1.73
2022-08-12T17:24:44.098Z,1.60
2022-08-12T17:27:22.375Z,1.80
2022-08-12T17:30:02.297Z,1.95
2022-08-12T17:32:35.051Z,1.85
2022-08-12T17:35:21.635Z,1.73
2022-08-12T17:38:11.688Z,1.90
2022-08-12T17:40:41.847Z,1.70
2022-08-12T17:43:54.601Z,1.75
2022-08-12T17:46:00.337Z,1.70
2022-08-12T17:48:34.381Z,1.50
2022-08-12T17:51:15.140Z,1.60
2022-08-12T17:54:10.239Z,1.60
2022-08-12T17:56:37.266Z,1.67
2022-08-12T17:59:07.450Z,1.58
2022-08-12T18:01:37.017Z,1.50
2022-08-12T18:04:22.064Z,1.80
2022-08-12T18:06:52.196Z,1.50
2022-08-12T18:09:21.677Z,2.00
2022-08-12T18:12:12.013Z,1.70
2022-08-12T18:14:41.284Z,1.98
2022-08-12T18:20:05.843Z,1.75
2022-08-12T18:22:33.310Z,2.10
2022-08-12T18:25:05.354Z,1.67
2022-08-12T18:27:44.033Z,2.10
2022-08-12T18:30:20.572Z,2.28
2022-08-12T18:33:04.284Z,1.85
2022-08-12T18:35:47.846Z,2.20
2022-08-12T18:38:24.734Z,2.10
2022-08-12T18:41:21.845Z,2.12
2022-08-12T18:44:01.271Z,2.00
2022-08-12T18:46:53.770Z,2.10
2022-08-12T18:49:34.611Z,1.75
2022-08-12T18:52:07.668Z,2.00
2022-08-12T18:54:48.955Z,1.90
2022-08-12T18:57:45.709Z,2.00
2022-08-12T19:00:21.443Z,1.77
2022-08-12T19:02:53.029Z,2.05
2022-08-12T19:05:53.195Z,2.03
2022-08-12T19:08:13.378Z,2.15
2022-08-12T19:10:50.079Z,2.60
2022-08-12T19:13:39.978Z,2.17
2022-08-12T19:16:11.328Z,2.42
2022-08-12T19:18:44.696Z,2.20
2022-08-12T19:21:16.962Z,2.60
2022-08-12T19:24:08.234Z,2.35
2022-08-12T19:26:35.986Z,2.80
2022-08-12T19:29:05.704Z,2.40
2022-08-12T19:31:55.733Z,2.58
2022-08-12T19:37:22.883Z,2.17
2022-08-12T19:40:10.971Z,2.72
2022-08-12T19:43:01.010Z,2.58
2022-08-12T19:45:43.906Z,2.33
2022-08-12T19:48:19.335Z,2.50
2022-08-12T19:50:50.289Z,2.72
2022-08-12T19:53:24.287Z,2.67
2022-08-12T19:55:53.936Z,2.70
2022-08-12T19:58:22.918Z,2.58
2022-08-12T20:00:53.340Z,2.72
2022-08-12T20:03:38.937Z,2.70
2022-08-12T20:06:16.136Z,2.95
2022-08-12T20:08:56.540Z,3.00
2022-08-12T20:12:14.635Z,2.60
2022-08-12T20:14:19.030Z,2.55
2022-08-12T20:16:56.284Z,2.40
2022-08-12T20:20:02.757Z,2.78
2022-08-12T20:22:29.947Z,2.45
2022-08-12T20:25:05.173Z,3.17
2022-08-12T20:28:03.028Z,2.60
2022-08-12T20:30:52.523Z,2.72
2022-08-12T20:33:17.377Z,2.50
2022-08-12T20:36:13.837Z,2.45
2022-08-12T20:38:39.668Z,2.35
2022-08-12T20:41:16.128Z,2.45
2022-08-12T20:43:44.316Z,2.05
2022-08-12T20:46:13.637Z,1.90
2022-08-12T20:48:43.610Z,1.80
2022-08-12T20:51:18.996Z,2.10
2022-08-12T20:53:57.495Z,2.00
2022-08-12T20:56:35.107Z,2.10
2022-08-12T20:59:10.674Z,2.17
2022-08-12T21:01:47.504Z,2.37
2022-08-12T21:04:35.912Z,2.08
2022-08-12T21:07:09.051Z,2.12
2022-08-12T21:12:37.440Z,2.28
2022-08-12T21:15:17.256Z,2.40
2022-08-12T21:18:11.253Z,2.67
2022-08-12T21:20:53.223Z,2.25
2022-08-12T21:23:22.582Z,1.83
2022-08-12T21:25:56.177Z,2.50
2022-08-12T21:28:27.826Z,2.03
2022-08-12T21:32:35.120Z,2.00
2022-08-12T21:34:08.218Z,2.80
2022-08-12T21:36:43.219Z,2.60
2022-08-12T21:39:21.301Z,2.20
2022-08-12T21:41:51.676Z,2.22
2022-08-12T21:44:24.472Z,2.22
2022-08-12T21:47:20.851Z,2.05
2022-08-12T21:50:03.898Z,2.03
2022-08-12T21:52:41.074Z,2.10
2022-08-12T21:55:19.400Z,2.05
2022-08-12T21:57:53.462Z,1.98
2022-08-12T22:00:32.599Z,2.33
2022-08-12T22:04:04.169Z,2.58
2022-08-12T22:06:30.984Z,2.30
2022-08-12T22:09:16.648Z,2.30
2022-08-12T22:11:49.372Z,2.20
2022-08-12T22:14:24.496Z,2.37
2022-08-12T22:16:53.925Z,2.62
2022-08-12T22:19:22.665Z,2.42
2022-08-12T22:21:53.583Z,2.70
2022-08-12T22:24:25.913Z,2.40
2022-08-12T22:26:55.569Z,2.30
2022-08-12T22:29:41.508Z,2.50
2022-08-12T22:32:11.254Z,2.58
2022-08-12T22:34:39.528Z,2.40
2022-08-12T22:37:11.367Z,2.22
2022-08-12T22:39:49.056Z,2.60
2022-08-12T22:42:35.898Z,2.47
2022-08-12T22:45:23.158Z,2.25
2022-08-12T22:47:55.203Z,2.22
2022-08-12T22:50:27.714Z,2.05
2022-08-12T22:53:19.488Z,1.92
2022-08-12T22:55:59.845Z,2.50
2022-08-12T22:58:40.213Z,2.20
2022-08-12T23:01:11.237Z,2.10
2022-08-12T23:03:49.620Z,2.20
2022-08-12T23:06:21.285Z,2.37
2022-08-12T23:08:48.858Z,2.20
2022-08-12T23:11:17.958Z,2.60
2022-08-12T23:13:56.169Z,2.10
2022-08-12T23:16:33.588Z,2.45
2022-08-12T23:19:10.381Z,2.10
2022-08-12T23:22:06.277Z,2.50
2022-08-12T23:24:56.242Z,2.20
2022-08-12T23:27:50.824Z,2.30
2022-08-12T23:30:31.965Z,2.20
2022-08-12T23:33:13.621Z,2.30
2022-08-12T23:36:03.417Z,1.90
2022-08-12T23:38:33.045Z,2.47
2022-08-12T23:41:02.655Z,2.37
2022-08-12T23:43:39.847Z,2.70
2022-08-12T23:46:18.407Z,2.40
2022-08-12T23:48:47.969Z,2.10
2022-08-12T23:51:23.139Z,2.42
2022-08-12T23:54:02.542Z,2.35
2022-08-12T23:56:34.505Z,2.35
2022-08-12T23:59:06.678Z,2.28
